sensor_id;sensor_type;location;lat;lon;timestamp;pressure;altitude;pressure_sealevel;temperature;humidity
54455;BME280;40364;52.270;10.546;2023-02-11T00:01:05;102091.28;;;8.15;87.12
54455;BME280;40364;52.270;10.546;2023-02-11T00:03:33;102081.22;;;7.90;88.23
54455;BME280;40364;52.270;10.546;2023-02-11T00:06:02;102074.72;;;8.38;84.31
54455;BME280;40364;52.270;10.546;2023-02-11T00:08:29;102068.09;;;8.29;83.94
54455;BME280;40364;52.270;10.546;2023-02-11T00:10:57;102072.41;;;8.98;79.58
54455;BME280;40364;52.270;10.546;2023-02-11T00:13:24;102063.09;;;8.31;85.21
54455;BME280;40364;52.270;10.546;2023-02-11T00:15:51;102050.69;;;8.24;84.75
54455;BME280;40364;52.270;10.546;2023-02-11T00:18:18;102050.69;;;7.95;90.09
54455;BME280;40364;52.270;10.546;2023-02-11T00:20:46;102050.00;;;8.08;92.69
54455;BME280;40364;52.270;10.546;2023-02-11T00:23:13;102043.28;;;7.80;95.92
54455;BME280;40364;52.270;10.546;2023-02-11T00:25:41;102057.25;;;9.09;84.47
54455;BME280;40364;52.270;10.546;2023-02-11T00:28:09;102052.75;;;8.42;89.52
54455;BME280;40364;52.270;10.546;2023-02-11T00:30:35;102061.69;;;9.10;86.06
54455;BME280;40364;52.270;10.546;2023-02-11T00:33:03;102068.03;;;9.35;84.49
54455;BME280;40364;52.270;10.546;2023-02-11T00:35:29;102061.34;;;9.73;81.34
54455;BME280;40364;52.270;10.546;2023-02-11T00:37:57;102051.94;;;9.51;85.25
54455;BME280;40364;52.270;10.546;2023-02-11T00:40:24;102040.88;;;9.27;88.10
54455;BME280;40364;52.270;10.546;2023-02-11T00:42:50;102032.81;;;9.82;83.88
54455;BME280;40364;52.270;10.546;2023-02-11T00:45:17;102049.41;;;9.73;85.66
54455;BME280;40364;52.270;10.546;2023-02-11T00:47:45;102059.81;;;10.00;81.70
54455;BME280;40364;52.270;10.546;2023-02-11T00:50:11;102053.53;;;9.75;85.05
54455;BME280;40364;52.270;10.546;2023-02-11T00:52:38;102053.34;;;10.18;81.43
54455;BME280;40364;52.270;10.546;2023-02-11T00:55:07;102057.25;;;9.85;86.21
54455;BME280;40364;52.270;10.546;2023-02-11T00:57:33;102071.19;;;10.36;82.15
54455;BME280;40364;52.270;10.546;2023-02-11T01:00:00;102069.28;;;9.80;83.27
54455;BME280;40364;52.270;10.546;2023-02-11T01:02:27;102066.13;;;9.87;86.16
54455;BME280;40364;52.270;10.546;2023-02-11T01:04:53;102072.94;;;10.45;81.82
54455;BME280;40364;52.270;10.546;2023-02-11T01:07:20;102090.13;;;10.01;84.13
54455;BME280;40364;52.270;10.546;2023-02-11T01:09:47;102094.88;;;10.01;85.60
54455;BME280;40364;52.270;10.546;2023-02-11T01:12:15;102083.03;;;10.09;84.56
54455;BME280;40364;52.270;10.546;2023-02-11T01:14:42;102071.53;;;9.97;84.55
54455;BME280;40364;52.270;10.546;2023-02-11T01:17:09;102070.41;;;9.79;89.18
54455;BME280;40364;52.270;10.546;2023-02-11T01:19:36;102071.38;;;10.07;86.82
54455;BME280;40364;52.270;10.546;2023-02-11T01:22:03;102060.53;;;10.24;85.25
54455;BME280;40364;52.270;10.546;2023-02-11T01:24:29;102049.88;;;9.94;88.58
54455;BME280;40364;52.270;10.546;2023-02-11T01:26:56;102030.34;;;10.12;85.53
54455;BME280;40364;52.270;10.546;2023-02-11T01:29:24;102037.91;;;9.93;86.95
54455;BME280;40364;52.270;10.546;2023-02-11T01:31:51;102047.34;;;10.11;87.28
54455;BME280;40364;52.270;10.546;2023-02-11T01:34:17;102056.75;;;10.15;87.12
54455;BME280;40364;52.270;10.546;2023-02-11T01:36:44;102053.03;;;10.06;88.09
54455;BME280;40364;52.270;10.546;2023-02-11T01:39:11;102050.78;;;10.08;88.66
54455;BME280;40364;52.270;10.546;2023-02-11T01:41:37;102042.91;;;10.10;89.68
54455;BME280;40364;52.270;10.546;2023-02-11T01:44:25;102052.84;;;10.16;89.82
54455;BME280;40364;52.270;10.546;2023-02-11T01:46:52;102050.44;;;10.42;87.17
54455;BME280;40364;52.270;10.546;2023-02-11T01:49:22;102046.53;;;10.10;91.47
54455;BME280;40364;52.270;10.546;2023-02-11T01:51:52;102040.44;;;10.27;91.20
54455;BME280;40364;52.270;10.546;2023-02-11T01:54:21;102033.41;;;9.97;93.67
54455;BME280;40364;52.270;10.546;2023-02-11T01:57:09;102038.28;;;10.52;90.25
54455;BME280;40364;52.270;10.546;2023-02-11T01:59:59;102038.59;;;10.50;89.75
54455;BME280;40364;52.270;10.546;2023-02-11T02:02:32;102039.03;;;10.71;88.46
54455;BME280;40364;52.270;10.546;2023-02-11T02:05:05;102030.44;;;10.54;91.26
54455;BME280;40364;52.270;10.546;2023-02-11T02:07:39;102027.75;;;10.35;94.04
54455;BME280;40364;52.270;10.546;2023-02-11T02:10:11;102014.69;;;10.17;93.84
54455;BME280;40364;52.270;10.546;2023-02-11T02:12:39;102002.91;;;9.73;98.90
54455;BME280;40364;52.270;10.546;2023-02-11T02:15:31;102005.03;;;10.28;94.71
54455;BME280;40364;52.270;10.546;2023-02-11T02:18:21;101996.69;;;9.95;98.92
54455;BME280;40364;52.270;10.546;2023-02-11T02:21:16;101992.16;;;10.45;94.99
54455;BME280;40364;52.270;10.546;2023-02-11T02:24:02;101992.16;;;10.45;94.94
54455;BME280;40364;52.270;10.546;2023-02-11T02:26:59;101982.78;;;10.69;94.20
54455;BME280;40364;52.270;10.546;2023-02-11T02:29:59;101991.66;;;10.30;95.85
54455;BME280;40364;52.270;10.546;2023-02-11T02:32:42;101990.41;;;10.50;96.07
54455;BME280;40364;52.270;10.546;2023-02-11T02:35:23;102002.72;;;9.84;100.00
54455;BME280;40364;52.270;10.546;2023-02-11T02:37:58;102001.03;;;10.01;100.00
54455;BME280;40364;52.270;10.546;2023-02-11T02:40:30;101985.16;;;10.02;100.00
54455;BME280;40364;52.270;10.546;2023-02-11T02:42:57;101982.38;;;10.62;95.59
54455;BME280;40364;52.270;10.546;2023-02-11T02:45:26;101979.03;;;9.35;100.00
54455;BME280;40364;52.270;10.546;2023-02-11T02:47:54;101975.78;;;9.65;100.00
54455;BME280;40364;52.270;10.546;2023-02-11T02:50:25;101971.50;;;9.54;100.00
54455;BME280;40364;52.270;10.546;2023-02-11T02:53:02;101969.69;;;9.63;100.00
54455;BME280;40364;52.270;10.546;2023-02-11T02:55:45;101967.16;;;9.80;100.00
54455;BME280;40364;52.270;10.546;2023-02-11T02:58:42;101959.75;;;9.76;100.00
54455;BME280;40364;52.270;10.546;2023-02-11T03:01:25;101966.50;;;10.16;100.00
54455;BME280;40364;52.270;10.546;2023-02-11T03:04:00;101965.78;;;10.10;100.00
54455;BME280;40364;52.270;10.546;2023-02-11T03:06:32;101951.47;;;10.03;100.00
54455;BME280;40364;52.270;10.546;2023-02-11T03:09:03;101979.75;;;10.24;100.00
54455;BME280;40364;52.270;10.546;2023-02-11T03:11:31;101980.72;;;9.68;100.00
54455;BME280;40364;52.270;10.546;2023-02-11T03:14:02;101971.78;;;10.18;100.00
54455;BME280;40364;52.270;10.546;2023-02-11T03:16:30;101976.47;;;9.90;100.00
54455;BME280;40364;52.270;10.546;2023-02-11T03:19:07;101977.81;;;9.60;100.00
54455;BME280;40364;52.270;10.546;2023-02-11T03:21:37;101974.06;;;9.51;100.00
54455;BME280;40364;52.270;10.546;2023-02-11T03:24:07;101973.28;;;9.64;100.00
54455;BME280;40364;52.270;10.546;2023-02-11T03:26:37;101975.41;;;11.36;97.59
54455;BME280;40364;52.270;10.546;2023-02-11T03:29:12;101982.25;;;9.93;100.00
54455;BME280;40364;52.270;10.546;2023-02-11T03:31:44;101978.44;;;9.38;100.00
54455;BME280;40364;52.270;10.546;2023-02-11T03:34:18;101974.81;;;9.89;100.00
54455;BME280;40364;52.270;10.546;2023-02-11T03:36:50;101963.78;;;10.30;100.00
54455;BME280;40364;52.270;10.546;2023-02-11T03:39:23;101966.81;;;10.01;100.00
54455;BME280;40364;52.270;10.546;2023-02-11T03:41:52;101966.88;;;10.97;100.00
54455;BME280;40364;52.270;10.546;2023-02-11T03:44:20;101952.66;;;11.07;100.00
54455;BME280;40364;52.270;10.546;2023-02-11T03:46:49;101957.59;;;10.60;100.00
54455;BME280;40364;52.270;10.546;2023-02-11T03:49:21;101949.59;;;9.99;100.00
54455;BME280;40364;52.270;10.546;2023-02-11T03:51:50;101965.06;;;11.14;100.00
54455;BME280;40364;52.270;10.546;2023-02-11T03:54:23;101975.94;;;10.89;100.00
54455;BME280;40364;52.270;10.546;2023-02-11T03:56:53;101976.69;;;10.53;100.00
54455;BME280;40364;52.270;10.546;2023-02-11T03:59:21;101982.19;;;10.12;100.00
54455;BME280;40364;52.270;10.546;2023-02-11T04:01:47;101983.38;;;10.79;100.00
54455;BME280;40364;52.270;10.546;2023-02-11T04:04:15;101985.88;;;10.54;100.00
54455;BME280;40364;52.270;10.546;2023-02-11T04:06:43;101976.50;;;10.36;100.00
54455;BME280;40364;52.270;10.546;2023-02-11T04:09:11;101984.41;;;10.29;100.00
54455;BME280;40364;52.270;10.546;2023-02-11T04:11:39;101974.53;;;10.64;100.00
54455;BME280;40364;52.270;10.546;2023-02-11T04:14:06;101982.69;;;10.14;100.00
54455;BME280;40364;52.270;10.546;2023-02-11T04:16:32;101973.69;;;10.22;100.00
54455;BME280;40364;52.270;10.546;2023-02-11T04:18:59;101977.59;;;10.21;100.00
54455;BME280;40364;52.270;10.546;2023-02-11T04:21:26;101965.13;;;10.32;100.00
54455;BME280;40364;52.270;10.546;2023-02-11T04:23:55;101972.88;;;10.35;100.00
54455;BME280;40364;52.270;10.546;2023-02-11T04:26:22;101984.03;;;10.63;100.00
54455;BME280;40364;52.270;10.546;2023-02-11T04:28:49;101979.69;;;10.57;100.00
54455;BME280;40364;52.270;10.546;2023-02-11T04:31:15;101976.38;;;10.41;100.00
54455;BME280;40364;52.270;10.546;2023-02-11T04:33:42;101989.78;;;10.53;100.00
54455;BME280;40364;52.270;10.546;2023-02-11T04:36:09;101993.31;;;10.58;100.00
54455;BME280;40364;52.270;10.546;2023-02-11T04:38:35;101999.81;;;10.67;100.00
54455;BME280;40364;52.270;10.546;2023-02-11T04:41:04;101994.13;;;10.86;100.00
54455;BME280;40364;52.270;10.546;2023-02-11T04:43:30;101991.03;;;10.60;100.00
54455;BME280;40364;52.270;10.546;2023-02-11T04:45:57;101984.22;;;10.80;100.00
54455;BME280;40364;52.270;10.546;2023-02-11T04:48:24;101988.34;;;10.55;100.00
54455;BME280;40364;52.270;10.546;2023-02-11T04:50:51;101978.47;;;9.70;100.00
54455;BME280;40364;52.270;10.546;2023-02-11T04:53:18;101975.34;;;10.92;100.00
54455;BME280;40364;52.270;10.546;2023-02-11T04:55:47;101977.31;;;11.27;100.00
54455;BME280;40364;52.270;10.546;2023-02-11T04:58:16;101977.22;;;10.69;100.00
54455;BME280;40364;52.270;10.546;2023-02-11T05:00:42;101973.06;;;10.80;100.00
54455;BME280;40364;52.270;10.546;2023-02-11T05:03:09;101965.94;;;10.88;100.00
54455;BME280;40364;52.270;10.546;2023-02-11T05:05:37;101965.41;;;10.86;100.00
54455;BME280;40364;52.270;10.546;2023-02-11T05:08:04;101962.22;;;10.92;100.00
54455;BME280;40364;52.270;10.546;2023-02-11T05:10:31;101962.25;;;10.37;100.00
54455;BME280;40364;52.270;10.546;2023-02-11T05:12:58;101970.16;;;10.85;100.00
54455;BME280;40364;52.270;10.546;2023-02-11T05:15:26;101961.25;;;10.01;100.00
54455;BME280;40364;52.270;10.546;2023-02-11T05:17:54;101951.09;;;9.77;100.00
54455;BME280;40364;52.270;10.546;2023-02-11T05:20:21;101950.72;;;9.98;100.00
54455;BME280;40364;52.270;10.546;2023-02-11T05:22:47;101955.72;;;9.50;100.00
54455;BME280;40364;52.270;10.546;2023-02-11T05:25:14;101955.06;;;10.04;100.00
54455;BME280;40364;52.270;10.546;2023-02-11T05:27:41;101959.13;;;10.25;100.00
54455;BME280;40364;52.270;10.546;2023-02-11T05:30:09;101955.44;;;10.57;100.00
54455;BME280;40364;52.270;10.546;2023-02-11T05:32:37;101959.97;;;10.67;100.00
54455;BME280;40364;52.270;10.546;2023-02-11T05:35:05;101949.66;;;10.40;100.00
54455;BME280;40364;52.270;10.546;2023-02-11T05:37:32;101955.84;;;10.51;100.00
54455;BME280;40364;52.270;10.546;2023-02-11T05:39:59;101960.47;;;10.41;100.00
54455;BME280;40364;52.270;10.546;2023-02-11T05:42:25;101958.81;;;10.40;100.00
54455;BME280;40364;52.270;10.546;2023-02-11T05:44:52;101944.19;;;11.12;100.00
54455;BME280;40364;52.270;10.546;2023-02-11T05:47:18;101937.59;;;9.52;100.00
54455;BME280;40364;52.270;10.546;2023-02-11T05:49:46;101954.69;;;10.24;100.00
54455;BME280;40364;52.270;10.546;2023-02-11T05:52:13;101939.34;;;10.27;100.00
54455;BME280;40364;52.270;10.546;2023-02-11T05:54:40;101945.13;;;10.30;100.00
54455;BME280;40364;52.270;10.546;2023-02-11T05:57:07;101946.84;;;10.81;100.00
54455;BME280;40364;52.270;10.546;2023-02-11T05:59:33;101941.81;;;10.69;100.00
54455;BME280;40364;52.270;10.546;2023-02-11T06:02:00;101931.19;;;10.58;100.00
54455;BME280;40364;52.270;10.546;2023-02-11T06:04:27;101949.84;;;11.21;100.00
54455;BME280;40364;52.270;10.546;2023-02-11T06:06:55;101959.25;;;10.61;100.00
54455;BME280;40364;52.270;10.546;2023-02-11T06:09:22;101958.63;;;9.91;100.00
54455;BME280;40364;52.270;10.546;2023-02-11T06:11:49;101948.94;;;10.34;100.00
54455;BME280;40364;52.270;10.546;2023-02-11T06:14:15;101948.31;;;10.37;100.00
54455;BME280;40364;52.270;10.546;2023-02-11T06:16:42;101934.69;;;10.22;100.00
54455;BME280;40364;52.270;10.546;2023-02-11T06:19:08;101929.31;;;10.67;100.00
54455;BME280;40364;52.270;10.546;2023-02-11T06:21:35;101933.19;;;10.93;100.00
54455;BME280;40364;52.270;10.546;2023-02-11T06:24:04;101930.47;;;10.66;100.00
54455;BME280;40364;52.270;10.546;2023-02-11T06:26:31;101932.81;;;10.72;100.00
54455;BME280;40364;52.270;10.546;2023-02-11T06:28:58;101934.06;;;11.16;100.00
54455;BME280;40364;52.270;10.546;2023-02-11T06:31:25;101939.22;;;10.45;100.00
54455;BME280;40364;52.270;10.546;2023-02-11T06:33:52;101929.72;;;10.74;100.00
54455;BME280;40364;52.270;10.546;2023-02-11T06:36:21;101943.28;;;10.39;100.00
54455;BME280;40364;52.270;10.546;2023-02-11T06:38:48;101948.22;;;10.56;100.00
54455;BME280;40364;52.270;10.546;2023-02-11T06:41:17;101926.53;;;10.53;100.00
54455;BME280;40364;52.270;10.546;2023-02-11T06:43:44;101942.03;;;11.09;100.00
54455;BME280;40364;52.270;10.546;2023-02-11T06:46:11;101935.72;;;10.54;100.00
54455;BME280;40364;52.270;10.546;2023-02-11T06:48:38;101934.09;;;10.39;100.00
54455;BME280;40364;52.270;10.546;2023-02-11T06:51:07;101942.66;;;10.29;100.00
54455;BME280;40364;52.270;10.546;2023-02-11T06:53:36;101944.59;;;10.56;100.00
54455;BME280;40364;52.270;10.546;2023-02-11T06:56:03;101944.03;;;10.12;100.00
54455;BME280;40364;52.270;10.546;2023-02-11T06:58:31;101940.09;;;10.13;100.00
54455;BME280;40364;52.270;10.546;2023-02-11T07:00:59;101945.97;;;10.12;100.00
54455;BME280;40364;52.270;10.546;2023-02-11T07:03:25;101956.97;;;10.50;100.00
54455;BME280;40364;52.270;10.546;2023-02-11T07:05:52;101959.97;;;10.67;100.00
54455;BME280;40364;52.270;10.546;2023-02-11T07:08:18;101960.38;;;10.33;100.00
54455;BME280;40364;52.270;10.546;2023-02-11T07:10:45;101956.38;;;10.39;100.00
54455;BME280;40364;52.270;10.546;2023-02-11T07:13:12;101958.00;;;10.81;100.00
54455;BME280;40364;52.270;10.546;2023-02-11T07:15:40;101965.22;;;10.96;100.00
54455;BME280;40364;52.270;10.546;2023-02-11T07:18:06;101966.56;;;10.85;100.00
54455;BME280;40364;52.270;10.546;2023-02-11T07:20:33;101953.69;;;10.48;100.00
54455;BME280;40364;52.270;10.546;2023-02-11T07:23:00;101959.38;;;10.10;100.00
54455;BME280;40364;52.270;10.546;2023-02-11T07:25:27;101952.00;;;10.19;100.00
54455;BME280;40364;52.270;10.546;2023-02-11T07:27:53;101967.69;;;10.42;100.00
54455;BME280;40364;52.270;10.546;2023-02-11T07:30:20;101949.72;;;10.76;100.00
54455;BME280;40364;52.270;10.546;2023-02-11T07:32:49;101936.34;;;10.64;100.00
54455;BME280;40364;52.270;10.546;2023-02-11T07:35:16;101938.75;;;10.11;100.00
54455;BME280;40364;52.270;10.546;2023-02-11T07:37:43;101933.72;;;10.95;100.00
54455;BME280;40364;52.270;10.546;2023-02-11T07:40:10;101939.41;;;10.90;100.00
54455;BME280;40364;52.270;10.546;2023-02-11T07:42:37;101938.59;;;10.76;100.00
54455;BME280;40364;52.270;10.546;2023-02-11T07:45:06;101938.19;;;11.19;100.00
54455;BME280;40364;52.270;10.546;2023-02-11T07:47:34;101936.25;;;11.05;100.00
54455;BME280;40364;52.270;10.546;2023-02-11T07:50:04;101944.50;;;10.61;100.00
54455;BME280;40364;52.270;10.546;2023-02-11T07:52:31;101936.66;;;10.35;100.00
54455;BME280;40364;52.270;10.546;2023-02-11T07:54:58;101958.22;;;10.30;100.00
54455;BME280;40364;52.270;10.546;2023-02-11T07:57:24;101955.13;;;10.59;100.00
54455;BME280;40364;52.270;10.546;2023-02-11T07:59:52;101970.28;;;10.80;100.00
54455;BME280;40364;52.270;10.546;2023-02-11T08:02:19;101966.94;;;11.41;100.00
54455;BME280;40364;52.270;10.546;2023-02-11T08:04:46;101976.25;;;10.87;100.00
54455;BME280;40364;52.270;10.546;2023-02-11T08:07:15;101979.47;;;10.80;100.00
54455;BME280;40364;52.270;10.546;2023-02-11T08:09:42;101984.63;;;10.32;100.00
54455;BME280;40364;52.270;10.546;2023-02-11T08:12:09;101987.25;;;11.20;100.00
54455;BME280;40364;52.270;10.546;2023-02-11T08:14:36;101979.09;;;11.23;100.00
54455;BME280;40364;52.270;10.546;2023-02-11T08:17:03;101982.97;;;11.00;100.00
54455;BME280;40364;52.270;10.546;2023-02-11T08:19:30;101992.03;;;11.77;100.00
54455;BME280;40364;52.270;10.546;2023-02-11T08:21:57;101988.09;;;11.06;100.00
54455;BME280;40364;52.270;10.546;2023-02-11T08:24:27;101989.88;;;10.89;100.00
54455;BME280;40364;52.270;10.546;2023-02-11T08:26:54;101991.41;;;11.67;100.00
54455;BME280;40364;52.270;10.546;2023-02-11T08:29:21;102002.34;;;11.19;100.00
54455;BME280;40364;52.270;10.546;2023-02-11T08:31:48;101995.66;;;11.42;100.00
54455;BME280;40364;52.270;10.546;2023-02-11T08:34:15;101998.78;;;11.63;100.00
54455;BME280;40364;52.270;10.546;2023-02-11T08:36:45;101995.31;;;11.07;100.00
54455;BME280;40364;52.270;10.546;2023-02-11T08:39:14;101994.31;;;10.76;100.00
54455;BME280;40364;52.270;10.546;2023-02-11T08:41:43;101992.75;;;11.47;100.00
54455;BME280;40364;52.270;10.546;2023-02-11T08:44:11;101983.53;;;11.10;100.00
54455;BME280;40364;52.270;10.546;2023-02-11T08:46:37;101985.19;;;11.11;100.00
54455;BME280;40364;52.270;10.546;2023-02-11T08:49:04;101993.22;;;11.27;100.00
54455;BME280;40364;52.270;10.546;2023-02-11T08:51:32;101982.88;;;10.91;100.00
54455;BME280;40364;52.270;10.546;2023-02-11T08:53:59;101998.41;;;11.20;100.00
54455;BME280;40364;52.270;10.546;2023-02-11T08:56:27;101999.91;;;10.90;100.00
54455;BME280;40364;52.270;10.546;2023-02-11T08:58:57;102001.97;;;10.98;100.00
54455;BME280;40364;52.270;10.546;2023-02-11T09:01:25;101995.41;;;11.30;100.00
54455;BME280;40364;52.270;10.546;2023-02-11T09:03:53;102006.31;;;11.40;100.00
54455;BME280;40364;52.270;10.546;2023-02-11T09:06:20;102003.72;;;11.79;100.00
54455;BME280;40364;52.270;10.546;2023-02-11T09:08:48;101990.72;;;10.89;100.00
54455;BME280;40364;52.270;10.546;2023-02-11T09:11:16;101997.19;;;11.12;100.00
54455;BME280;40364;52.270;10.546;2023-02-11T09:13:44;101996.06;;;10.72;100.00
54455;BME280;40364;52.270;10.546;2023-02-11T09:16:17;102011.78;;;11.45;100.00
54455;BME280;40364;52.270;10.546;2023-02-11T09:18:45;102003.31;;;11.36;100.00
54455;BME280;40364;52.270;10.546;2023-02-11T09:21:13;102017.16;;;11.64;100.00
54455;BME280;40364;52.270;10.546;2023-02-11T09:23:41;102017.84;;;11.47;100.00
54455;BME280;40364;52.270;10.546;2023-02-11T09:26:11;102026.63;;;11.54;100.00
54455;BME280;40364;52.270;10.546;2023-02-11T09:28:39;102025.09;;;10.98;100.00
54455;BME280;40364;52.270;10.546;2023-02-11T09:31:07;102028.50;;;10.95;100.00
54455;BME280;40364;52.270;10.546;2023-02-11T09:33:37;102018.97;;;11.24;100.00
54455;BME280;40364;52.270;10.546;2023-02-11T09:36:07;102028.59;;;10.90;100.00
54455;BME280;40364;52.270;10.546;2023-02-11T09:38:34;102031.91;;;11.56;100.00
54455;BME280;40364;52.270;10.546;2023-02-11T09:41:01;102042.34;;;10.87;100.00
54455;BME280;40364;52.270;10.546;2023-02-11T09:43:35;102056.41;;;11.45;100.00
54455;BME280;40364;52.270;10.546;2023-02-11T09:46:04;102058.63;;;11.21;100.00
54455;BME280;40364;52.270;10.546;2023-02-11T09:48:38;102052.78;;;11.58;100.00
54455;BME280;40364;52.270;10.546;2023-02-11T09:51:15;102044.81;;;11.52;100.00
54455;BME280;40364;52.270;10.546;2023-02-11T09:53:45;102047.78;;;11.05;100.00
54455;BME280;40364;52.270;10.546;2023-02-11T09:56:14;102053.72;;;11.40;100.00
54455;BME280;40364;52.270;10.546;2023-02-11T09:58:42;102050.84;;;11.67;100.00
54455;BME280;40364;52.270;10.546;2023-02-11T10:01:18;102050.78;;;11.23;100.00
54455;BME280;40364;52.270;10.546;2023-02-11T10:03:58;102058.75;;;10.88;100.00
54455;BME280;40364;52.270;10.546;2023-02-11T10:06:42;102060.91;;;11.19;100.00
54455;BME280;40364;52.270;10.546;2023-02-11T10:09:20;102072.63;;;11.43;100.00
54455;BME280;40364;52.270;10.546;2023-02-11T10:12:00;102073.69;;;11.69;100.00
54455;BME280;40364;52.270;10.546;2023-02-11T10:14:48;102071.19;;;11.32;100.00
54455;BME280;40364;52.270;10.546;2023-02-11T10:17:26;102058.75;;;11.16;100.00
54455;BME280;40364;52.270;10.546;2023-02-11T10:20:05;102066.38;;;11.24;100.00
54455;BME280;40364;52.270;10.546;2023-02-11T10:22:36;102057.72;;;11.61;100.00
54455;BME280;40364;52.270;10.546;2023-02-11T10:25:18;102053.16;;;11.29;100.00
54455;BME280;40364;52.270;10.546;2023-02-11T10:27:46;102063.75;;;11.91;100.00
54455;BME280;40364;52.270;10.546;2023-02-11T10:30:21;102062.09;;;11.76;100.00
54455;BME280;40364;52.270;10.546;2023-02-11T10:32:55;102058.75;;;11.16;100.00
54455;BME280;40364;52.270;10.546;2023-02-11T10:35:25;102074.50;;;11.47;100.00
54455;BME280;40364;52.270;10.546;2023-02-11T10:37:52;102066.31;;;11.51;100.00
54455;BME280;40364;52.270;10.546;2023-02-11T10:40:22;102063.81;;;11.13;100.00
54455;BME280;40364;52.270;10.546;2023-02-11T10:42:51;102052.47;;;11.60;100.00
54455;BME280;40364;52.270;10.546;2023-02-11T10:45:25;102060.34;;;11.44;100.00
54455;BME280;40364;52.270;10.546;2023-02-11T10:47:53;102054.59;;;11.76;100.00
54455;BME280;40364;52.270;10.546;2023-02-11T10:50:23;102058.78;;;11.38;100.00
54455;BME280;40364;52.270;10.546;2023-02-11T10:52:52;102058.72;;;11.29;100.00
54455;BME280;40364;52.270;10.546;2023-02-11T10:55:20;102054.03;;;11.74;100.00
54455;BME280;40364;52.270;10.546;2023-02-11T10:57:51;102060.56;;;11.34;100.00
54455;BME280;40364;52.270;10.546;2023-02-11T11:00:25;102053.34;;;11.83;100.00
54455;BME280;40364;52.270;10.546;2023-02-11T11:02:54;102061.00;;;11.63;100.00
54455;BME280;40364;52.270;10.546;2023-02-11T11:05:27;102066.94;;;11.48;100.00
54455;BME280;40364;52.270;10.546;2023-02-11T11:08:01;102073.31;;;11.62;100.00
54455;BME280;40364;52.270;10.546;2023-02-11T11:10:36;102053.13;;;11.65;100.00
54455;BME280;40364;52.270;10.546;2023-02-11T11:13:26;102055.63;;;11.80;100.00
54455;BME280;40364;52.270;10.546;2023-02-11T11:18:39;102071.09;;;11.37;100.00
54455;BME280;40364;52.270;10.546;2023-02-11T11:21:17;102069.06;;;11.29;100.00
54455;BME280;40364;52.270;10.546;2023-02-11T11:23:58;102064.47;;;12.27;100.00
54455;BME280;40364;52.270;10.546;2023-02-11T11:26:27;102062.25;;;11.93;100.00
54455;BME280;40364;52.270;10.546;2023-02-11T11:28:58;102060.44;;;11.53;100.00
54455;BME280;40364;52.270;10.546;2023-02-11T11:31:28;102057.25;;;12.04;100.00
54455;BME280;40364;52.270;10.546;2023-02-11T11:33:58;102072.44;;;11.75;100.00
54455;BME280;40364;52.270;10.546;2023-02-11T11:36:33;102067.72;;;11.62;100.00
54455;BME280;40364;52.270;10.546;2023-02-11T11:39:22;102065.75;;;12.43;100.00
54455;BME280;40364;52.270;10.546;2023-02-11T11:41:55;102065.63;;;12.04;100.00
54455;BME280;40364;52.270;10.546;2023-02-11T11:44:26;102065.88;;;11.94;100.00
54455;BME280;40364;52.270;10.546;2023-02-11T11:47:11;102064.69;;;11.86;100.00
54455;BME280;40364;52.270;10.546;2023-02-11T11:49:45;102058.78;;;11.88;100.00
54455;BME280;40364;52.270;10.546;2023-02-11T11:52:18;102053.44;;;11.77;100.00
54455;BME280;40364;52.270;10.546;2023-02-11T11:54:52;102074.84;;;11.68;100.00
54455;BME280;40364;52.270;10.546;2023-02-11T11:57:24;102065.22;;;11.74;100.00
54455;BME280;40364;52.270;10.546;2023-02-11T11:59:52;102059.75;;;12.05;100.00
54455;BME280;40364;52.270;10.546;2023-02-11T12:02:38;102078.53;;;11.91;100.00
54455;BME280;40364;52.270;10.546;2023-02-11T12:05:12;102081.31;;;12.36;100.00
54455;BME280;40364;52.270;10.546;2023-02-11T12:07:58;102087.47;;;12.02;100.00
54455;BME280;40364;52.270;10.546;2023-02-11T12:10:50;102088.22;;;12.38;100.00
54455;BME280;40364;52.270;10.546;2023-02-11T12:13:33;102093.66;;;12.12;100.00
54455;BME280;40364;52.270;10.546;2023-02-11T12:16:19;102077.44;;;12.23;100.00
54455;BME280;40364;52.270;10.546;2023-02-11T12:22:00;102100.69;;;12.32;100.00
54455;BME280;40364;52.270;10.546;2023-02-11T12:24:41;102081.88;;;11.66;100.00
54455;BME280;40364;52.270;10.546;2023-02-11T12:27:26;102105.38;;;12.01;100.00
54455;BME280;40364;52.270;10.546;2023-02-11T12:30:10;102088.69;;;11.87;100.00
54455;BME280;40364;52.270;10.546;2023-02-11T12:32:47;102097.50;;;12.47;100.00
54455;BME280;40364;52.270;10.546;2023-02-11T12:35:30;102076.59;;;12.45;100.00
54455;BME280;40364;52.270;10.546;2023-02-11T12:38:16;102072.97;;;12.44;100.00
54455;BME280;40364;52.270;10.546;2023-02-11T12:40:59;102106.25;;;12.32;100.00
54455;BME280;40364;52.270;10.546;2023-02-11T12:43:33;102106.38;;;12.27;100.00
54455;BME280;40364;52.270;10.546;2023-02-11T12:46:19;102097.56;;;12.11;100.00
54455;BME280;40364;52.270;10.546;2023-02-11T12:49:13;102102.34;;;12.11;100.00
54455;BME280;40364;52.270;10.546;2023-02-11T12:52:02;102074.97;;;11.77;100.00
54455;BME280;40364;52.270;10.546;2023-02-11T12:54:39;102086.44;;;12.42;100.00
54455;BME280;40364;52.270;10.546;2023-02-11T12:57:18;102086.78;;;12.72;100.00